sensor_id;sensor_type;location;lat;lon;timestamp;pressure;altitude;pressure_sealevel;temperature;humidity
17054;BME280;8643;48.824;11.422;2022-09-29T00:01:21;95520.16;;;4.90;100.00
17054;BME280;8643;48.824;11.422;2022-09-29T00:03:50;95521.31;;;4.81;100.00
17054;BME280;8643;48.824;11.422;2022-09-29T00:06:18;95529.97;;;4.74;100.00
17054;BME280;8643;48.824;11.422;2022-09-29T00:08:47;95527.78;;;4.67;100.00
17054;BME280;8643;48.824;11.422;2022-09-29T00:11:18;95529.59;;;4.63;100.00
17054;BME280;8643;48.824;11.422;2022-09-29T00:13:47;95520.69;;;4.54;100.00
17054;BME280;8643;48.824;11.422;2022-09-29T00:16:16;95518.31;;;4.52;100.00
17054;BME280;8643;48.824;11.422;2022-09-29T00:18:45;95522.31;;;4.46;100.00
17054;BME280;8643;48.824;11.422;2022-09-29T00:21:17;95522.06;;;4.39;100.00
17054;BME280;8643;48.824;11.422;2022-09-29T00:23:47;95527.00;;;4.37;100.00
17054;BME280;8643;48.824;11.422;2022-09-29T00:26:18;95516.63;;;4.39;100.00
17054;BME280;8643;48.824;11.422;2022-09-29T00:28:49;95512.31;;;4.38;100.00
17054;BME280;8643;48.824;11.422;2022-09-29T00:31:20;95512.31;;;4.38;100.00
17054;BME280;8643;48.824;11.422;2022-09-29T00:33:50;95517.75;;;4.38;100.00
17054;BME280;8643;48.824;11.422;2022-09-29T00:36:21;95512.47;;;4.41;100.00
17054;BME280;8643;48.824;11.422;2022-09-29T00:38:51;95513.91;;;4.39;100.00
17054;BME280;8643;48.824;11.422;2022-09-29T00:41:23;95520.31;;;4.34;100.00
17054;BME280;8643;48.824;11.422;2022-09-29T00:43:56;95518.72;;;4.33;100.00
17054;BME280;8643;48.824;11.422;2022-09-29T00:46:35;95519.03;;;4.32;100.00
17054;BME280;8643;48.824;11.422;2022-09-29T00:49:14;95521.75;;;4.32;100.00
17054;BME280;8643;48.824;11.422;2022-09-29T00:51:52;95518.41;;;4.35;100.00
17054;BME280;8643;48.824;11.422;2022-09-29T00:54:24;95523.53;;;4.28;100.00
17054;BME280;8643;48.824;11.422;2022-09-29T00:56:58;95516.06;;;4.25;100.00
17054;BME280;8643;48.824;11.422;2022-09-29T00:59:36;95522.44;;;4.20;100.00
17054;BME280;8643;48.824;11.422;2022-09-29T01:02:07;95518.31;;;4.14;100.00
17054;BME280;8643;48.824;11.422;2022-09-29T01:04:38;95522.63;;;4.15;100.00
17054;BME280;8643;48.824;11.422;2022-09-29T01:07:08;95520.72;;;4.15;100.00
17054;BME280;8643;48.824;11.422;2022-09-29T01:09:39;95510.81;;;4.19;100.00
17054;BME280;8643;48.824;11.422;2022-09-29T01:12:09;95514.94;;;4.26;100.00
17054;BME280;8643;48.824;11.422;2022-09-29T01:14:38;95515.09;;;4.29;100.00
17054;BME280;8643;48.824;11.422;2022-09-29T01:17:07;95504.84;;;4.35;100.00
17054;BME280;8643;48.824;11.422;2022-09-29T01:19:48;95497.47;;;4.44;100.00
17054;BME280;8643;48.824;11.422;2022-09-29T01:22:44;95496.75;;;4.56;100.00
17054;BME280;8643;48.824;11.422;2022-09-29T01:25:52;95488.44;;;4.61;100.00
17054;BME280;8643;48.824;11.422;2022-09-29T01:28:55;95496.09;;;4.59;100.00
17054;BME280;8643;48.824;11.422;2022-09-29T01:31:36;95498.69;;;4.55;100.00
17054;BME280;8643;48.824;11.422;2022-09-29T01:34:18;95504.63;;;4.49;100.00
17054;BME280;8643;48.824;11.422;2022-09-29T01:37:02;95503.09;;;4.39;100.00
17054;BME280;8643;48.824;11.422;2022-09-29T01:39:40;95495.66;;;4.27;100.00
17054;BME280;8643;48.824;11.422;2022-09-29T01:42:14;95503.94;;;4.22;100.00
17054;BME280;8643;48.824;11.422;2022-09-29T01:44:50;95501.75;;;4.15;100.00
17054;BME280;8643;48.824;11.422;2022-09-29T01:47:27;95502.56;;;4.07;100.00
17054;BME280;8643;48.824;11.422;2022-09-29T01:50:04;95508.63;;;4.04;100.00
17054;BME280;8643;48.824;11.422;2022-09-29T01:52:45;95498.81;;;3.99;100.00
17054;BME280;8643;48.824;11.422;2022-09-29T01:55:18;95503.59;;;3.94;100.00
17054;BME280;8643;48.824;11.422;2022-09-29T01:57:54;95506.78;;;3.87;100.00
17054;BME280;8643;48.824;11.422;2022-09-29T02:00:25;95507.44;;;3.84;100.00
17054;BME280;8643;48.824;11.422;2022-09-29T02:03:04;95500.91;;;3.85;100.00
17054;BME280;8643;48.824;11.422;2022-09-29T02:05:43;95507.91;;;3.86;100.00
17054;BME280;8643;48.824;11.422;2022-09-29T02:08:16;95504.41;;;3.85;100.00
17054;BME280;8643;48.824;11.422;2022-09-29T02:10:52;95497.72;;;3.83;100.00
17054;BME280;8643;48.824;11.422;2022-09-29T02:13:23;95497.25;;;3.90;100.00
17054;BME280;8643;48.824;11.422;2022-09-29T02:15:55;95497.97;;;4.08;100.00
17054;BME280;8643;48.824;11.422;2022-09-29T02:18:32;95499.03;;;4.15;100.00
17054;BME280;8643;48.824;11.422;2022-09-29T02:21:02;95499.94;;;4.28;100.00
17054;BME280;8643;48.824;11.422;2022-09-29T02:23:30;95500.56;;;4.34;100.00
17054;BME280;8643;48.824;11.422;2022-09-29T02:25:59;95496.25;;;4.33;100.00
17054;BME280;8643;48.824;11.422;2022-09-29T02:28:29;95496.13;;;4.29;100.00
17054;BME280;8643;48.824;11.422;2022-09-29T02:30:59;95497.09;;;4.25;100.00
17054;BME280;8643;48.824;11.422;2022-09-29T02:33:29;95503.28;;;4.25;100.00
17054;BME280;8643;48.824;11.422;2022-09-29T02:36:14;95498.03;;;4.29;100.00
17054;BME280;8643;48.824;11.422;2022-09-29T02:38:52;95500.56;;;4.34;100.00
17054;BME280;8643;48.824;11.422;2022-09-29T02:41:37;95499.91;;;4.37;100.00
17054;BME280;8643;48.824;11.422;2022-09-29T02:47:36;95505.16;;;4.33;100.00
17054;BME280;8643;48.824;11.422;2022-09-29T02:50:37;95501.34;;;4.34;100.00
17054;BME280;8643;48.824;11.422;2022-09-29T02:53:17;95499.94;;;4.28;100.00
17054;BME280;8643;48.824;11.422;2022-09-29T02:55:57;95501.41;;;4.26;100.00
17054;BME280;8643;48.824;11.422;2022-09-29T02:58:36;95496.75;;;4.26;100.00
17054;BME280;8643;48.824;11.422;2022-09-29T03:01:06;95493.78;;;4.19;100.00
17054;BME280;8643;48.824;11.422;2022-09-29T03:03:35;95492.50;;;4.16;100.00
17054;BME280;8643;48.824;11.422;2022-09-29T03:06:05;95495.22;;;4.16;100.00
17054;BME280;8643;48.824;11.422;2022-09-29T03:08:34;95488.50;;;4.22;100.00
17054;BME280;8643;48.824;11.422;2022-09-29T03:11:02;95489.09;;;4.28;100.00
17054;BME280;8643;48.824;11.422;2022-09-29T03:13:30;95501.22;;;4.31;100.00
17054;BME280;8643;48.824;11.422;2022-09-29T03:15:59;95502.13;;;4.35;100.00
17054;BME280;8643;48.824;11.422;2022-09-29T03:18:27;95495.59;;;4.36;100.00
17054;BME280;8643;48.824;11.422;2022-09-29T03:20:56;95505.66;;;4.35;100.00
17054;BME280;8643;48.824;11.422;2022-09-29T03:23:25;95496.25;;;4.33;100.00
17054;BME280;8643;48.824;11.422;2022-09-29T03:25:54;95496.72;;;4.35;100.00
17054;BME280;8643;48.824;11.422;2022-09-29T03:28:22;95488.78;;;4.30;100.00
17054;BME280;8643;48.824;11.422;2022-09-29T03:30:50;95494.66;;;4.32;100.00
17054;BME280;8643;48.824;11.422;2022-09-29T03:33:21;95491.16;;;4.31;100.00
17054;BME280;8643;48.824;11.422;2022-09-29T03:35:49;95493.09;;;4.31;100.00
17054;BME280;8643;48.824;11.422;2022-09-29T03:38:17;95492.91;;;4.36;100.00
17054;BME280;8643;48.824;11.422;2022-09-29T03:40:47;95489.72;;;4.34;100.00
17054;BME280;8643;48.824;11.422;2022-09-29T03:43:16;95483.03;;;4.31;100.00
17054;BME280;8643;48.824;11.422;2022-09-29T03:45:48;95490.69;;;4.29;100.00
17054;BME280;8643;48.824;11.422;2022-09-29T03:48:18;95486.53;;;4.32;100.00
17054;BME280;8643;48.824;11.422;2022-09-29T03:50:50;95489.47;;;4.18;100.00
17054;BME280;8643;48.824;11.422;2022-09-29T03:53:20;95491.91;;;4.11;100.00
17054;BME280;8643;48.824;11.422;2022-09-29T03:55:50;95489.34;;;4.06;100.00
17054;BME280;8643;48.824;11.422;2022-09-29T03:58:18;95482.69;;;4.03;100.00
17054;BME280;8643;48.824;11.422;2022-09-29T04:00:47;95482.88;;;3.98;100.00
17054;BME280;8643;48.824;11.422;2022-09-29T04:03:16;95481.75;;;3.99;100.00
17054;BME280;8643;48.824;11.422;2022-09-29T04:05:46;95486.69;;;3.97;100.00
17054;BME280;8643;48.824;11.422;2022-09-29T04:08:15;95491.00;;;3.98;100.00
17054;BME280;8643;48.824;11.422;2022-09-29T04:10:46;95494.38;;;3.86;100.00
17054;BME280;8643;48.824;11.422;2022-09-29T04:13:16;95495.81;;;3.83;100.00
17054;BME280;8643;48.824;11.422;2022-09-29T04:15:46;95495.00;;;3.92;100.00
17054;BME280;8643;48.824;11.422;2022-09-29T04:18:15;95489.22;;;4.02;100.00
17054;BME280;8643;48.824;11.422;2022-09-29T04:20:43;95477.91;;;4.00;100.00
17054;BME280;8643;48.824;11.422;2022-09-29T04:23:11;95477.59;;;4.01;100.00
17054;BME280;8643;48.824;11.422;2022-09-29T04:25:42;95486.03;;;4.00;100.00
17054;BME280;8643;48.824;11.422;2022-09-29T04:28:11;95483.34;;;4.00;100.00
17054;BME280;8643;48.824;11.422;2022-09-29T04:30:40;95493.72;;;3.98;100.00
17054;BME280;8643;48.824;11.422;2022-09-29T04:33:09;95485.78;;;3.84;100.00
17054;BME280;8643;48.824;11.422;2022-09-29T04:35:37;95487.28;;;3.64;100.00
17054;BME280;8643;48.824;11.422;2022-09-29T04:38:06;95484.59;;;3.46;100.00
17054;BME280;8643;48.824;11.422;2022-09-29T04:40:35;95496.72;;;3.32;100.00
17054;BME280;8643;48.824;11.422;2022-09-29T04:43:04;95504.22;;;3.17;100.00
17054;BME280;8643;48.824;11.422;2022-09-29T04:45:32;95491.03;;;3.07;100.00
17054;BME280;8643;48.824;11.422;2022-09-29T04:48:02;95495.78;;;3.10;100.00
17054;BME280;8643;48.824;11.422;2022-09-29T04:50:31;95491.47;;;3.18;100.00
17054;BME280;8643;48.824;11.422;2022-09-29T04:52:59;95502.78;;;3.20;100.00
17054;BME280;8643;48.824;11.422;2022-09-29T04:55:28;95500.56;;;3.22;100.00
17054;BME280;8643;48.824;11.422;2022-09-29T04:57:56;95501.34;;;3.31;100.00
17054;BME280;8643;48.824;11.422;2022-09-29T05:00:24;95506.88;;;3.43;100.00
17054;BME280;8643;48.824;11.422;2022-09-29T05:02:53;95498.00;;;3.34;100.00
17054;BME280;8643;48.824;11.422;2022-09-29T05:05:22;95500.38;;;3.36;100.00
17054;BME280;8643;48.824;11.422;2022-09-29T05:07:51;95508.03;;;3.25;100.00
17054;BME280;8643;48.824;11.422;2022-09-29T05:10:19;95501.97;;;3.19;100.00
17054;BME280;8643;48.824;11.422;2022-09-29T05:12:48;95498.63;;;3.22;100.00
17054;BME280;8643;48.824;11.422;2022-09-29T05:15:18;95496.88;;;3.26;100.00
17054;BME280;8643;48.824;11.422;2022-09-29T05:17:52;95493.53;;;3.38;100.00
17054;BME280;8643;48.824;11.422;2022-09-29T05:20:21;95495.44;;;3.46;100.00
17054;BME280;8643;48.824;11.422;2022-09-29T05:22:50;95497.31;;;3.55;100.00
17054;BME280;8643;48.824;11.422;2022-09-29T05:25:18;95511.63;;;3.55;100.00
17054;BME280;8643;48.824;11.422;2022-09-29T05:27:46;95506.22;;;3.55;100.00
17054;BME280;8643;48.824;11.422;2022-09-29T05:30:15;95506.22;;;3.64;100.00
17054;BME280;8643;48.824;11.422;2022-09-29T05:32:43;95511.31;;;3.65;100.00
17054;BME280;8643;48.824;11.422;2022-09-29T05:35:12;95515.28;;;3.77;100.00
17054;BME280;8643;48.824;11.422;2022-09-29T05:37:41;95516.66;;;3.83;100.00
17054;BME280;8643;48.824;11.422;2022-09-29T05:40:10;95517.44;;;3.92;100.00
17054;BME280;8643;48.824;11.422;2022-09-29T05:42:39;95517.13;;;3.94;100.00
17054;BME280;8643;48.824;11.422;2022-09-29T05:45:08;95518.53;;;4.00;100.00
17054;BME280;8643;48.824;11.422;2022-09-29T05:47:41;95525.84;;;4.08;100.00
17054;BME280;8643;48.824;11.422;2022-09-29T05:50:11;95513.06;;;4.17;100.00
17054;BME280;8643;48.824;11.422;2022-09-29T05:52:41;95512.06;;;4.31;100.00
17054;BME280;8643;48.824;11.422;2022-09-29T05:55:09;95514.06;;;4.43;100.00
17054;BME280;8643;48.824;11.422;2022-09-29T05:57:38;95520.19;;;4.61;100.00
17054;BME280;8643;48.824;11.422;2022-09-29T06:00:07;95516.22;;;4.79;100.00
17054;BME280;8643;48.824;11.422;2022-09-29T06:02:39;95513.88;;;4.99;100.00
17054;BME280;8643;48.824;11.422;2022-09-29T06:05:08;95504.69;;;5.12;100.00
17054;BME280;8643;48.824;11.422;2022-09-29T06:07:36;95499.97;;;5.21;100.00
17054;BME280;8643;48.824;11.422;2022-09-29T06:10:07;95501.78;;;5.17;100.00
17054;BME280;8643;48.824;11.422;2022-09-29T06:12:36;95501.09;;;5.20;100.00
17054;BME280;8643;48.824;11.422;2022-09-29T06:15:06;95502.84;;;5.25;100.00
17054;BME280;8643;48.824;11.422;2022-09-29T06:17:34;95495.06;;;5.36;100.00
17054;BME280;8643;48.824;11.422;2022-09-29T06:20:05;95493.19;;;5.48;100.00
17054;BME280;8643;48.824;11.422;2022-09-29T06:22:34;95490.94;;;5.50;100.00
17054;BME280;8643;48.824;11.422;2022-09-29T06:25:02;95491.22;;;5.70;100.00
17054;BME280;8643;48.824;11.422;2022-09-29T06:27:32;95489.72;;;5.60;100.00
17054;BME280;8643;48.824;11.422;2022-09-29T06:30:01;95487.47;;;5.62;100.00
17054;BME280;8643;48.824;11.422;2022-09-29T06:32:29;95490.44;;;5.69;100.00
17054;BME280;8643;48.824;11.422;2022-09-29T06:35:00;95487.06;;;5.85;100.00
17054;BME280;8643;48.824;11.422;2022-09-29T06:37:45;95484.19;;;6.02;100.00
17054;BME280;8643;48.824;11.422;2022-09-29T06:40:14;95488.38;;;6.12;100.00
17054;BME280;8643;48.824;11.422;2022-09-29T06:42:44;95486.81;;;6.23;100.00
17054;BME280;8643;48.824;11.422;2022-09-29T06:45:12;95488.63;;;6.32;100.00
17054;BME280;8643;48.824;11.422;2022-09-29T06:47:45;95491.34;;;6.32;100.00
17054;BME280;8643;48.824;11.422;2022-09-29T06:50:13;95494.03;;;6.56;100.00
17054;BME280;8643;48.824;11.422;2022-09-29T06:52:48;95491.09;;;6.74;100.00
17054;BME280;8643;48.824;11.422;2022-09-29T06:55:29;95492.09;;;6.82;100.00
17054;BME280;8643;48.824;11.422;2022-09-29T06:57:59;95500.91;;;6.91;100.00
17054;BME280;8643;48.824;11.422;2022-09-29T07:00:31;95508.34;;;7.19;100.00
17054;BME280;8643;48.824;11.422;2022-09-29T07:03:01;95507.88;;;7.29;100.00
17054;BME280;8643;48.824;11.422;2022-09-29T07:05:29;95509.59;;;7.49;100.00
17054;BME280;8643;48.824;11.422;2022-09-29T07:07:59;95508.69;;;7.74;100.00
17054;BME280;8643;48.824;11.422;2022-09-29T07:10:29;95507.53;;;8.03;100.00
17054;BME280;8643;48.824;11.422;2022-09-29T07:12:59;95510.78;;;7.93;100.00
17054;BME280;8643;48.824;11.422;2022-09-29T07:15:27;95518.19;;;7.36;100.00
17054;BME280;8643;48.824;11.422;2022-09-29T07:17:59;95522.66;;;7.15;100.00
17054;BME280;8643;48.824;11.422;2022-09-29T07:20:29;95522.13;;;6.97;100.00
17054;BME280;8643;48.824;11.422;2022-09-29T07:22:58;95525.06;;;7.05;100.00
17054;BME280;8643;48.824;11.422;2022-09-29T07:25:26;95531.63;;;7.16;100.00
17054;BME280;8643;48.824;11.422;2022-09-29T07:28:16;95529.72;;;7.45;100.00
17054;BME280;8643;48.824;11.422;2022-09-29T07:30:45;95538.59;;;7.70;100.00
17054;BME280;8643;48.824;11.422;2022-09-29T07:33:13;95531.16;;;7.83;100.00
17054;BME280;8643;48.824;11.422;2022-09-29T07:35:44;95530.16;;;8.03;100.00
17054;BME280;8643;48.824;11.422;2022-09-29T07:38:12;95528.97;;;8.04;100.00
17054;BME280;8643;48.824;11.422;2022-09-29T07:40:41;95523.97;;;7.91;100.00
17054;BME280;8643;48.824;11.422;2022-09-29T07:43:10;95530.03;;;7.84;100.00
17054;BME280;8643;48.824;11.422;2022-09-29T07:45:45;95538.41;;;7.79;100.00
17054;BME280;8643;48.824;11.422;2022-09-29T07:48:14;95542.25;;;7.62;100.00
17054;BME280;8643;48.824;11.422;2022-09-29T07:50:44;95544.78;;;7.55;100.00
17054;BME280;8643;48.824;11.422;2022-09-29T07:53:13;95545.81;;;7.78;100.00
17054;BME280;8643;48.824;11.422;2022-09-29T07:55:41;95548.03;;;8.49;100.00
17054;BME280;8643;48.824;11.422;2022-09-29T07:58:10;95555.25;;;8.89;100.00
17054;BME280;8643;48.824;11.422;2022-09-29T08:00:39;95559.31;;;8.63;100.00
17054;BME280;8643;48.824;11.422;2022-09-29T08:03:09;95556.50;;;8.59;100.00
17054;BME280;8643;48.824;11.422;2022-09-29T08:05:37;95561.25;;;8.47;100.00
17054;BME280;8643;48.824;11.422;2022-09-29T08:08:06;95558.88;;;8.45;100.00
17054;BME280;8643;48.824;11.422;2022-09-29T08:10:34;95566.34;;;8.48;100.00
17054;BME280;8643;48.824;11.422;2022-09-29T08:13:18;95559.59;;;8.58;100.00
17054;BME280;8643;48.824;11.422;2022-09-29T08:15:48;95569.88;;;8.49;100.00
17054;BME280;8643;48.824;11.422;2022-09-29T08:18:16;95559.03;;;8.68;100.00
17054;BME280;8643;48.824;11.422;2022-09-29T08:20:47;95564.34;;;8.77;100.00
17054;BME280;8643;48.824;11.422;2022-09-29T08:23:15;95570.84;;;8.88;100.00
17054;BME280;8643;48.824;11.422;2022-09-29T08:25:44;95569.56;;;9.17;100.00
17054;BME280;8643;48.824;11.422;2022-09-29T08:28:28;95572.94;;;9.30;100.00
17054;BME280;8643;48.824;11.422;2022-09-29T08:31:03;95569.56;;;9.17;100.00
17054;BME280;8643;48.824;11.422;2022-09-29T08:33:32;95578.38;;;9.46;100.00
17054;BME280;8643;48.824;11.422;2022-09-29T08:36:01;95571.59;;;9.40;100.00
17054;BME280;8643;48.824;11.422;2022-09-29T08:38:32;95571.16;;;9.38;100.00
17054;BME280;8643;48.824;11.422;2022-09-29T08:41:24;95582.69;;;9.12;100.00
17054;BME280;8643;48.824;11.422;2022-09-29T08:44:03;95581.41;;;8.74;100.00
17054;BME280;8643;48.824;11.422;2022-09-29T08:46:57;95570.06;;;9.23;100.00
17054;BME280;8643;48.824;11.422;2022-09-29T08:49:41;95571.38;;;9.29;100.00
17054;BME280;8643;48.824;11.422;2022-09-29T08:52:15;95575.16;;;9.60;100.00
17054;BME280;8643;48.824;11.422;2022-09-29T08:54:48;95577.06;;;9.40;100.00
17054;BME280;8643;48.824;11.422;2022-09-29T08:57:20;95580.22;;;9.23;100.00
17054;BME280;8643;48.824;11.422;2022-09-29T08:59:54;95585.06;;;9.13;100.00
17054;BME280;8643;48.824;11.422;2022-09-29T09:02:54;95582.59;;;9.08;100.00
17054;BME280;8643;48.824;11.422;2022-09-29T09:06:18;95586.31;;;9.00;100.00
17054;BME280;8643;48.824;11.422;2022-09-29T09:09:07;95588.84;;;9.09;100.00
17054;BME280;8643;48.824;11.422;2022-09-29T09:12:06;95587.63;;;9.06;100.00
17054;BME280;8643;48.824;11.422;2022-09-29T09:15:02;95592.06;;;8.95;100.00
17054;BME280;8643;48.824;11.422;2022-09-29T09:17:58;95592.75;;;9.08;100.00
17054;BME280;8643;48.824;11.422;2022-09-29T09:20:33;95581.38;;;9.06;100.00
17054;BME280;8643;48.824;11.422;2022-09-29T09:23:17;95584.13;;;8.90;100.00
17054;BME280;8643;48.824;11.422;2022-09-29T09:25:52;95585.09;;;8.97;100.00
17054;BME280;8643;48.824;11.422;2022-09-29T09:28:27;95588.00;;;9.05;100.00
17054;BME280;8643;48.824;11.422;2022-09-29T09:31:05;95589.28;;;9.11;100.00
17054;BME280;8643;48.824;11.422;2022-09-29T09:33:43;95583.94;;;9.14;100.00
17054;BME280;8643;48.824;11.422;2022-09-29T09:36:33;95589.28;;;9.11;100.00
17054;BME280;8643;48.824;11.422;2022-09-29T09:39:09;95595.97;;;9.29;100.00
17054;BME280;8643;48.824;11.422;2022-09-29T09:41:43;95586.91;;;9.45;100.00
17054;BME280;8643;48.824;11.422;2022-09-29T09:44:16;95587.09;;;9.71;100.00
17054;BME280;8643;48.824;11.422;2022-09-29T09:46:51;95585.03;;;9.65;100.00
17054;BME280;8643;48.824;11.422;2022-09-29T09:49:25;95582.09;;;9.38;100.00
17054;BME280;8643;48.824;11.422;2022-09-29T09:52:03;95585.28;;;9.60;100.00
17054;BME280;8643;48.824;11.422;2022-09-29T09:54:39;95587.31;;;9.82;100.00
17054;BME280;8643;48.824;11.422;2022-09-29T09:57:34;95584.84;;;9.58;100.00
17054;BME280;8643;48.824;11.422;2022-09-29T10:00:11;95584.00;;;9.93;100.00
17054;BME280;8643;48.824;11.422;2022-09-29T10:02:45;95582.84;;;10.13;100.00
17054;BME280;8643;48.824;11.422;2022-09-29T10:05:18;95590.38;;;10.20;100.00
17054;BME280;8643;48.824;11.422;2022-09-29T10:07:47;95587.31;;;10.02;100.00
17054;BME280;8643;48.824;11.422;2022-09-29T10:10:19;95592.13;;;9.89;100.00
17054;BME280;8643;48.824;11.422;2022-09-29T10:13:00;95591.56;;;9.80;100.00
17054;BME280;8643;48.824;11.422;2022-09-29T10:15:35;95597.03;;;9.80;100.00
17054;BME280;8643;48.824;11.422;2022-09-29T10:18:12;95586.88;;;10.00;100.00
17054;BME280;8643;48.824;11.422;2022-09-29T10:20:43;95591.31;;;10.47;100.00
17054;BME280;8643;48.824;11.422;2022-09-29T10:23:34;95594.00;;;10.67;100.00
17054;BME280;8643;48.824;11.422;2022-09-29T10:26:11;95593.72;;;10.75;100.00
17054;BME280;8643;48.824;11.422;2022-09-29T10:28:46;95588.38;;;10.82;100.00
17054;BME280;8643;48.824;11.422;2022-09-29T10:31:22;95591.91;;;11.33;100.00
17054;BME280;8643;48.824;11.422;2022-09-29T10:33:57;95592.19;;;11.54;100.00
17054;BME280;8643;48.824;11.422;2022-09-29T10:36:31;95586.47;;;11.94;100.00
17054;BME280;8643;48.824;11.422;2022-09-29T10:39:01;95588.66;;;11.84;100.00
17054;BME280;8643;48.824;11.422;2022-09-29T10:41:49;95600.56;;;11.65;100.00
17054;BME280;8643;48.824;11.422;2022-09-29T10:44:21;95599.75;;;12.25;100.00
17054;BME280;8643;48.824;11.422;2022-09-29T10:46:53;95602.59;;;12.74;100.00
17054;BME280;8643;48.824;11.422;2022-09-29T10:49:24;95601.66;;;12.55;100.00
17054;BME280;8643;48.824;11.422;2022-09-29T10:52:03;95596.22;;;12.62;100.00
17054;BME280;8643;48.824;11.422;2022-09-29T10:54:38;95597.34;;;12.20;100.00
17054;BME280;8643;48.824;11.422;2022-09-29T10:57:13;95610.59;;;12.11;100.00
17054;BME280;8643;48.824;11.422;2022-09-29T10:59:47;95605.72;;;12.35;100.00
17054;BME280;8643;48.824;11.422;2022-09-29T11:02:23;95608.28;;;12.54;100.00
17054;BME280;8643;48.824;11.422;2022-09-29T11:04:57;95619.94;;;12.40;100.00
17054;BME280;8643;48.824;11.422;2022-09-29T11:07:29;95612.81;;;12.02;100.00
17054;BME280;8643;48.824;11.422;2022-09-29T11:10:00;95614.06;;;12.08;100.00
17054;BME280;8643;48.824;11.422;2022-09-29T11:12:32;95619.44;;;12.31;100.00
17054;BME280;8643;48.824;11.422;2022-09-29T11:15:23;95612.34;;;12.68;100.00
17054;BME280;8643;48.824;11.422;2022-09-29T11:17:52;95621.72;;;13.04;100.00
17054;BME280;8643;48.824;11.422;2022-09-29T11:20:27;95628.50;;;13.17;100.00
17054;BME280;8643;48.824;11.422;2022-09-29T11:23:16;95626.00;;;13.46;100.00
17054;BME280;8643;48.824;11.422;2022-09-29T11:26:07;95625.53;;;13.37;100.00
17054;BME280;8643;48.824;11.422;2022-09-29T11:29:17;95620.88;;;13.48;100.00
17054;BME280;8643;48.824;11.422;2022-09-29T11:32:10;95625.56;;;13.44;100.00
17054;BME280;8643;48.824;11.422;2022-09-29T11:35:12;95623.91;;;13.32;100.00
17054;BME280;8643;48.824;11.422;2022-09-29T11:38:06;95622.69;;;13.89;100.00
17054;BME280;8643;48.824;11.422;2022-09-29T11:40:53;95619.13;;;13.85;100.00
17054;BME280;8643;48.824;11.422;2022-09-29T11:43:42;95616.91;;;14.16;98.69
17054;BME280;8643;48.824;11.422;2022-09-29T11:46:41;95626.63;;;13.91;99.72
17054;BME280;8643;48.824;11.422;2022-09-29T11:49:30;95619.28;;;13.47;100.00
17054;BME280;8643;48.824;11.422;2022-09-29T11:52:25;95615.59;;;13.25;100.00
17054;BME280;8643;48.824;11.422;2022-09-29T11:55:22;95617.88;;;13.16;100.00
17054;BME280;8643;48.824;11.422;2022-09-29T11:58:05;95617.34;;;13.48;100.00
17054;BME280;8643;48.824;11.422;2022-09-29T12:00:56;95620.56;;;13.09;100.00
17054;BME280;8643;48.824;11.422;2022-09-29T12:03:45;95625.25;;;13.08;100.00
17054;BME280;8643;48.824;11.422;2022-09-29T12:06:54;95623.78;;;13.18;100.00
17054;BME280;8643;48.824;11.422;2022-09-29T12:09:53;95630.75;;;13.08;100.00
17054;BME280;8643;48.824;11.422;2022-09-29T12:12:36;95623.50;;;12.86;100.00
17054;BME280;8643;48.824;11.422;2022-09-29T12:15:22;95619.38;;;12.61;100.00
17054;BME280;8643;48.824;11.422;2022-09-29T12:18:02;95617.19;;;12.40;100.00
17054;BME280;8643;48.824;11.422;2022-09-29T12:20:36;95619.09;;;12.36;100.00
17054;BME280;8643;48.824;11.422;2022-09-29T12:23:11;95620.34;;;12.08;100.00
17054;BME280;8643;48.824;11.422;2022-09-29T12:25:54;95615.88;;;11.97;100.00
17054;BME280;8643;48.824;11.422;2022-09-29T12:28:33;95618.81;;;11.84;100.00
17054;BME280;8643;48.824;11.422;2022-09-29T12:31:11;95619.97;;;11.53;100.00
17054;BME280;8643;48.824;11.422;2022-09-29T12:33:47;95614.94;;;11.28;100.00
17054;BME280;8643;48.824;11.422;2022-09-29T12:36:30;95612.91;;;11.25;100.00
17054;BME280;8643;48.824;11.422;2022-09-29T12:39:30;95605.94;;;11.05;100.00
17054;BME280;8643;48.824;11.422;2022-09-29T12:42:16;95606.53;;;10.68;100.00
17054;BME280;8643;48.824;11.422;2022-09-29T12:44:56;95614.63;;;10.41;100.00
17054;BME280;8643;48.824;11.422;2022-09-29T12:47:56;95615.66;;;10.13;100.00
17054;BME280;8643;48.824;11.422;2022-09-29T12:50:32;95620.06;;;9.98;100.00
17054;BME280;8643;48.824;11.422;2022-09-29T12:53:11;95606.59;;;9.89;100.00
17054;BME280;8643;48.824;11.422;2022-09-29T12:55:52;95607.16;;;9.79;100.00
17054;BME280;8643;48.824;11.422;2022-09-29T12:58:36;95609.41;;;9.73;100.00
17054;BME280;8643;48.824;11.422;2022-09-29T13:01:22;95614.28;;;9.64;100.00
17054;BME280;8643;48.824;11.422;2022-09-29T13:04:42;95607.88;;;9.57;100.00
17054;BME280;8643;48.824;11.422;2022-09-29T13:08:01;95619.41;;;9.50;100.00
17054;BME280;8643;48.824;11.422;2022-09-29T13:10:52;95611.16;;;9.46;100.00
17054;BME280;8643;48.824;11.422;2022-09-29T13:17:15;95616.53;;;9.43;100.00
17054;BME280;8643;48.824;11.422;2022-09-29T13:20:29;95622.56;;;9.32;100.00
17054;BME280;8643;48.824;11.422;2022-09-29T13:23:55;95615.22;;;9.36;100.00
17054;BME280;8643;48.824;11.422;2022-09-29T13:26:56;95624.25;;;9.37;100.00
17054;BME280;8643;48.824;11.422;2022-09-29T13:29:45;95621.88;;;9.35;100.00
17054;BME280;8643;48.824;11.422;2022-09-29T13:32:17;95612.00;;;9.31;100.00
17054;BME280;8643;48.824;11.422;2022-09-29T13:34:52;95613.13;;;9.30;100.00
17054;BME280;8643;48.824;11.422;2022-09-29T13:37:25;95612.28;;;9.26;100.00
17054;BME280;8643;48.824;11.422;2022-09-29T13:39:58;95621.59;;;9.25;100.00
17054;BME280;8643;48.824;11.422;2022-09-29T13:42:43;95621.19;;;9.23;100.00
17054;BME280;8643;48.824;11.422;2022-09-29T13:45:41;95616.00;;;9.17;100.00
17054;BME280;8643;48.824;11.422;2022-09-29T13:48:52;95618.09;;;9.24;100.00
17054;BME280;8643;48.824;11.422;2022-09-29T13:51:50;95623.28;;;9.29;100.00